Briefing drone pour Romorantin-lanthenay (LFYR)

Rechercher une autre localisation

Conditions de vol :


Nous sommes le : Dimanche 28 février 2021
Il est 09:50 UTC (10:50 LT)

Lever de soleil : 06:07 UTC (07:07 LT)
Coucher de soleil : 18:03 UTC (19:03 LT)

Météo

L'essentiel des conditions de vol

VIGILANCE MÉTÉO FRANCE - Loir-et-Cher (41)
Pas de vigilances particulieres
CARTES DES FRONTS
METAR de LFYR
LFYR 280930Z AUTO 05008KT 020V080 CAVOK 06/01 Q1030

Date d'émission: 28/02/2021
Heure d'émission: 09:30 UTC
Vent: 050° (variable du 020° au 080°) pour 8 KT (15 km/h)
Visibilité horizontale: > 10 km
Plafond : Plafond et visibilité OK (CAVOK)
Température: 6 °C
Point de rosée: 1 °C
Humidité: 70%
Pression (QNH): 1030 hPa
TAF de LFYR
AMD LFYR 021630Z 0216/0312 CNL

Conditions prévues :

Heure d'émission : Bulletin éffectué le 02 à 16:00 UTC
Prévision : Valide du 02 a 16:00 UTC au 03 a 12:00 UTC
Nuages : à 0ft (0 m)
WEBCAM POUR ROMORANTIN-LANTHENAY

Réglementation

Voler en sécurité

CARTES AERONAUTIQUE 1/500.000
CARTES VAC (LFYR)
SUP AIP




Chargement des AIP...
NOTAM (ROMORANTIN-LANTHENAY + Terrain à proximité / FIR )




Chargement des NOTAMS...
CONTACT PREFECTURE 41
Loir-et-Cher (41) : pref-bpas@loir-et-cher.gouv.fr


Avertissement : Les données mises à disposition sont indicatives. Oxygène Drone ne pourra être tenu responsable de dégâts causés aux biens et aux personnes.